createdAt,value
2017-02-08T00:00:22.650Z,0
2017-02-08T00:01:22.634Z,0
2017-02-08T00:02:22.667Z,0
2017-02-08T00:03:22.602Z,0
2017-02-08T00:04:22.587Z,0
2017-02-08T00:05:22.572Z,0
2017-02-08T00:06:22.165Z,0
2017-02-08T00:07:22.148Z,0
2017-02-08T00:08:22.521Z,0
2017-02-08T00:09:22.504Z,0
2017-02-08T00:10:22.488Z,0
2017-02-08T00:11:22.470Z,0
2017-02-08T00:12:22.068Z,0
2017-02-08T00:13:22.436Z,0
2017-02-08T00:14:22.033Z,0
2017-02-08T00:15:22.017Z,0
2017-02-08T00:16:22.001Z,0
2017-02-08T00:17:21.986Z,0
2017-02-08T00:18:22.362Z,0
2017-02-08T00:19:21.952Z,0
2017-02-08T00:20:21.935Z,0
2017-02-08T00:21:21.918Z,0
2017-02-08T00:22:22.289Z,0
2017-02-08T00:23:22.276Z,0
2017-02-08T00:24:22.261Z,0
2017-02-08T00:25:22.273Z,0
2017-02-08T00:26:22.230Z,0
2017-02-08T00:27:21.048Z,0
2017-02-08T00:28:22.193Z,0
2017-02-08T00:29:22.180Z,0
2017-02-08T00:30:22.156Z,0
2017-02-08T00:31:22.149Z,0
2017-02-08T00:32:22.125Z,0
2017-02-08T00:33:22.145Z,0
2017-02-08T00:34:22.094Z,0
2017-02-08T00:35:22.072Z,0
2017-02-08T00:36:22.059Z,0
2017-02-08T00:37:22.050Z,0
2017-02-08T00:38:22.026Z,0
2017-02-08T00:39:21.625Z,0
2017-02-08T00:40:21.993Z,0
2017-02-08T00:41:21.978Z,0
2017-02-08T00:42:21.962Z,0
2017-02-08T00:43:21.942Z,0
2017-02-08T00:44:21.929Z,0
2017-02-08T00:45:21.911Z,0
2017-02-08T00:46:21.897Z,0
2017-02-08T00:47:21.880Z,0
2017-02-08T00:48:21.872Z,0
2017-02-08T00:49:21.846Z,0
2017-02-08T00:50:21.443Z,0
2017-02-08T00:51:21.813Z,0
2017-02-08T00:52:21.799Z,0
2017-02-08T00:53:21.394Z,0
2017-02-08T00:54:21.374Z,0
2017-02-08T00:55:21.360Z,0
2017-02-08T00:56:21.739Z,0
2017-02-08T00:57:21.718Z,0
2017-02-08T00:58:21.695Z,0
2017-02-08T00:59:21.683Z,0
2017-02-08T01:00:21.277Z,0
2017-02-08T01:01:20.878Z,0
2017-02-08T01:02:21.248Z,0
2017-02-08T01:03:21.616Z,0
2017-02-08T01:04:21.599Z,0
2017-02-08T01:05:21.585Z,0
2017-02-08T01:06:21.180Z,0
2017-02-08T01:07:21.551Z,0
2017-02-08T01:08:21.533Z,0
2017-02-08T01:09:21.516Z,0
2017-02-08T01:10:21.502Z,0
2017-02-08T01:11:21.485Z,0
2017-02-08T01:12:21.467Z,0
2017-02-08T01:13:21.452Z,0
2017-02-08T01:14:21.436Z,0
2017-02-08T01:15:21.036Z,0
2017-02-08T01:16:21.017Z,0
2017-02-08T01:17:21.387Z,0
2017-02-08T01:18:21.371Z,0
2017-02-08T01:19:21.381Z,0
2017-02-08T01:20:21.337Z,0
2017-02-08T01:21:21.316Z,0
2017-02-08T01:22:21.301Z,0
2017-02-08T01:23:20.897Z,0
2017-02-08T01:24:21.269Z,0
2017-02-08T01:25:21.275Z,0
2017-02-08T01:26:20.850Z,0
2017-02-08T01:27:21.220Z,0
2017-02-08T01:28:21.202Z,0
2017-02-08T01:29:20.824Z,0
2017-02-08T01:30:21.167Z,0
2017-02-08T01:31:20.765Z,0
2017-02-08T01:32:20.748Z,0
2017-02-08T01:33:21.116Z,0
2017-02-08T01:34:21.102Z,0
2017-02-08T01:35:21.082Z,0
2017-02-08T01:36:21.071Z,0
2017-02-08T01:37:21.049Z,0
2017-02-08T01:38:21.034Z,0
2017-02-08T01:39:21.015Z,0
2017-02-08T01:40:20.612Z,0
2017-02-08T01:41:20.601Z,0
2017-02-08T01:42:20.581Z,0
2017-02-08T01:43:20.950Z,0
2017-02-08T01:44:20.549Z,0
2017-02-08T01:45:20.530Z,0
2017-02-08T01:46:20.515Z,0
2017-02-08T01:47:20.888Z,0
2017-02-08T01:48:20.479Z,0
2017-02-08T01:49:20.463Z,0
2017-02-08T01:50:20.831Z,0
2017-02-08T01:51:20.822Z,0
2017-02-08T01:52:20.800Z,0
2017-02-08T01:53:20.398Z,0
2017-02-08T01:54:20.767Z,0
2017-02-08T01:55:20.752Z,0
2017-02-08T01:56:20.730Z,0
2017-02-08T01:57:20.721Z,0
2017-02-08T01:58:20.701Z,0
2017-02-08T01:59:20.691Z,0
2017-02-08T02:00:20.666Z,0
2017-02-08T02:01:20.648Z,0
2017-02-08T02:02:20.243Z,0
2017-02-08T02:03:20.616Z,0
2017-02-08T02:04:20.603Z,0
2017-02-08T02:05:20.583Z,0
2017-02-08T02:06:20.176Z,0
2017-02-08T02:07:20.546Z,0
2017-02-08T02:08:20.145Z,0
2017-02-08T02:09:20.130Z,0
2017-02-08T02:10:20.500Z,0
2017-02-08T02:11:20.485Z,0
2017-02-08T02:12:20.076Z,0
2017-02-08T02:13:20.449Z,0
2017-02-08T02:14:20.048Z,0
2017-02-08T02:15:20.031Z,0
2017-02-08T02:16:19.629Z,0
2017-02-08T02:17:20.378Z,0
2017-02-08T02:18:20.358Z,0
2017-02-08T02:19:20.344Z,0
2017-02-08T02:20:20.327Z,0
2017-02-08T02:21:20.308Z,0
2017-02-08T02:22:19.910Z,0
2017-02-08T02:23:20.276Z,0
2017-02-08T02:24:20.256Z,0
2017-02-08T02:25:20.242Z,0
2017-02-08T02:26:20.227Z,0
2017-02-08T02:27:19.823Z,0
2017-02-08T02:28:20.192Z,0
2017-02-08T02:29:20.177Z,0
2017-02-08T02:30:20.166Z,0
2017-02-08T02:31:20.148Z,0
2017-02-08T02:32:20.127Z,0
2017-02-08T02:33:20.111Z,0
2017-02-08T02:34:20.095Z,0
2017-02-08T02:35:19.686Z,0
2017-02-08T02:36:20.054Z,0
2017-02-08T02:37:20.041Z,0
2017-02-08T02:38:20.023Z,0
2017-02-08T02:39:20.004Z,0
2017-02-08T02:40:19.987Z,0
2017-02-08T02:41:19.972Z,0
2017-02-08T02:42:19.960Z,0
2017-02-08T02:43:19.940Z,0
2017-02-08T02:44:19.922Z,0
2017-02-08T02:45:19.906Z,0
2017-02-08T02:46:19.888Z,0
2017-02-08T02:47:19.868Z,0
2017-02-08T02:48:19.854Z,0
2017-02-08T02:49:19.839Z,0
2017-02-08T02:50:19.821Z,0
2017-02-08T02:51:19.801Z,0
2017-02-08T02:52:19.788Z,0
2017-02-08T02:53:19.769Z,0
2017-02-08T02:54:19.750Z,0
2017-02-08T02:55:19.735Z,0
2017-02-08T02:56:19.720Z,0
2017-02-08T02:57:19.699Z,0
2017-02-08T02:58:19.294Z,0
2017-02-08T02:59:19.667Z,0
2017-02-08T03:00:19.262Z,0
2017-02-08T03:01:19.632Z,0
2017-02-08T03:02:19.617Z,0
2017-02-08T03:03:19.601Z,0
2017-02-08T03:04:19.581Z,0
2017-02-08T03:05:19.563Z,0
2017-02-08T03:06:19.548Z,0
2017-02-08T03:07:19.538Z,0
2017-02-08T03:08:19.125Z,0
2017-02-08T03:09:19.496Z,0
2017-02-08T03:10:19.478Z,0
2017-02-08T03:11:19.464Z,0
2017-02-08T03:12:19.444Z,0
2017-02-08T03:13:19.429Z,0
2017-02-08T03:14:19.411Z,0
2017-02-08T03:15:19.392Z,0
2017-02-08T03:16:19.376Z,0
2017-02-08T03:17:19.358Z,0
2017-02-08T03:18:19.341Z,0
2017-02-08T03:19:19.323Z,0
2017-02-08T03:20:19.310Z,0
2017-02-08T03:21:19.292Z,0
2017-02-08T03:22:19.270Z,0
2017-02-08T03:23:19.254Z,0
2017-02-08T03:24:19.236Z,0
2017-02-08T03:25:19.220Z,0
2017-02-08T03:26:19.203Z,0
2017-02-08T03:27:18.800Z,0
2017-02-08T03:28:19.204Z,0
2017-02-08T03:29:19.153Z,0
2017-02-08T03:30:18.751Z,0
2017-02-08T03:31:19.121Z,0
2017-02-08T03:32:19.102Z,0
2017-02-08T03:33:19.083Z,0
2017-02-08T03:34:19.065Z,0
2017-02-08T03:35:19.049Z,0
2017-02-08T03:36:19.034Z,0
2017-02-08T03:37:19.016Z,0
2017-02-08T03:38:18.997Z,0
2017-02-08T03:39:18.977Z,0
2017-02-08T03:40:18.962Z,0
2017-02-08T03:41:18.945Z,0
2017-02-08T03:42:18.932Z,0
2017-02-08T03:43:18.916Z,0
2017-02-08T03:44:18.899Z,0
2017-02-08T03:45:18.880Z,0
2017-02-08T03:46:18.861Z,0
2017-02-08T03:47:18.841Z,0
2017-02-08T03:48:18.826Z,0
2017-02-08T03:49:18.816Z,0
2017-02-08T03:50:18.795Z,0
2017-02-08T03:51:18.399Z,0
2017-02-08T03:52:18.376Z,0
2017-02-08T03:53:18.740Z,0
2017-02-08T03:54:18.726Z,0
2017-02-08T03:55:18.709Z,0
2017-02-08T03:56:18.692Z,0
2017-02-08T03:57:18.676Z,0
2017-02-08T03:58:18.657Z,0
2017-02-08T03:59:18.643Z,0
2017-02-08T04:00:18.621Z,0
2017-02-08T04:01:18.239Z,0
2017-02-08T04:02:18.596Z,0
2017-02-08T04:03:18.576Z,0
2017-02-08T04:04:18.557Z,0
2017-02-08T04:05:18.537Z,0
2017-02-08T04:06:18.134Z,0
2017-02-08T04:07:18.503Z,0
2017-02-08T04:08:18.101Z,0
2017-02-08T04:09:18.469Z,0
2017-02-08T04:10:18.067Z,0
2017-02-08T04:11:18.435Z,0
2017-02-08T04:12:18.419Z,0
2017-02-08T04:13:18.406Z,0
2017-02-08T04:14:18.383Z,0
2017-02-08T04:15:18.365Z,0
2017-02-08T04:16:18.354Z,0
2017-02-08T04:17:18.334Z,0
2017-02-08T04:18:17.928Z,0
2017-02-08T04:19:18.317Z,0
2017-02-08T04:20:18.283Z,0
2017-02-08T04:21:17.882Z,0
2017-02-08T04:22:17.476Z,0
2017-02-08T04:23:18.230Z,0
2017-02-08T04:24:17.826Z,0
2017-02-08T04:25:17.804Z,0
2017-02-08T04:26:17.788Z,0
2017-02-08T04:27:18.163Z,0
2017-02-08T04:28:17.757Z,0
2017-02-08T04:29:17.738Z,0
2017-02-08T04:30:17.720Z,0
2017-02-08T04:31:17.705Z,0
2017-02-08T04:32:18.074Z,0
2017-02-08T04:33:17.673Z,0
2017-02-08T04:34:17.652Z,0
2017-02-08T04:35:17.635Z,0
2017-02-08T04:36:17.616Z,0
2017-02-08T04:37:17.608Z,0
2017-02-08T04:38:17.584Z,0
2017-02-08T04:39:17.565Z,0
2017-02-08T04:40:17.163Z,0
2017-02-08T04:41:17.144Z,0
2017-02-08T04:42:17.515Z,0
2017-02-08T04:43:17.884Z,0
2017-02-08T04:44:17.865Z,0
2017-02-08T04:45:17.849Z,0
2017-02-08T04:46:17.832Z,0
2017-02-08T04:47:17.815Z,0
2017-02-08T04:48:17.798Z,0
2017-02-08T04:49:17.394Z,0
2017-02-08T04:50:17.761Z,0
2017-02-08T04:51:17.743Z,0
2017-02-08T04:52:17.339Z,0
2017-02-08T04:53:17.322Z,0
2017-02-08T04:54:17.692Z,0
2017-02-08T04:55:17.675Z,0
2017-02-08T04:56:17.662Z,0
2017-02-08T04:57:17.643Z,0
2017-02-08T04:58:17.236Z,0
2017-02-08T04:59:17.609Z,0
2017-02-08T05:00:17.205Z,0
2017-02-08T05:01:17.186Z,0
2017-02-08T05:02:17.557Z,0
2017-02-08T05:03:17.538Z,0
2017-02-08T05:04:17.529Z,0
2017-02-08T05:05:17.500Z,0
2017-02-08T05:06:17.484Z,0
2017-02-08T05:07:17.079Z,0
2017-02-08T05:08:17.448Z,0
2017-02-08T05:09:17.442Z,0
2017-02-08T05:10:17.036Z,0
2017-02-08T05:11:17.398Z,0
2017-02-08T05:12:17.383Z,0
2017-02-08T05:13:16.975Z,0
2017-02-08T05:14:17.345Z,0
2017-02-08T05:15:17.335Z,0
2017-02-08T05:16:16.926Z,0
2017-02-08T05:17:17.328Z,0
2017-02-08T05:18:17.281Z,0
2017-02-08T05:19:17.263Z,0
2017-02-08T05:20:17.243Z,0
2017-02-08T05:21:17.224Z,0
2017-02-08T05:22:16.824Z,0
2017-02-08T05:23:17.191Z,0
2017-02-08T05:24:16.787Z,0
2017-02-08T05:25:16.769Z,0
2017-02-08T05:26:17.138Z,0
2017-02-08T05:27:17.120Z,0
2017-02-08T05:28:16.718Z,0
2017-02-08T05:29:17.086Z,0
2017-02-08T05:30:17.106Z,0
2017-02-08T05:31:17.058Z,0
2017-02-08T05:32:17.075Z,0
2017-02-08T05:33:17.019Z,0
2017-02-08T05:34:16.913Z,0
2017-02-08T05:35:16.983Z,0
2017-02-08T05:36:16.965Z,0
2017-02-08T05:37:16.946Z,0
2017-02-08T05:38:16.928Z,0
2017-02-08T05:39:16.912Z,0
2017-02-08T05:40:16.896Z,0
2017-02-08T05:41:16.497Z,0
2017-02-08T05:42:16.476Z,0
2017-02-08T05:43:16.883Z,0
2017-02-08T05:44:16.828Z,0
2017-02-08T05:45:16.813Z,0
2017-02-08T05:46:16.791Z,0
2017-02-08T05:47:16.774Z,0
2017-02-08T05:48:16.370Z,0
2017-02-08T05:49:16.739Z,0
2017-02-08T05:50:16.723Z,0
2017-02-08T05:51:16.704Z,0
2017-02-08T05:52:16.304Z,0
2017-02-08T05:53:16.287Z,0
2017-02-08T05:54:16.653Z,0
2017-02-08T05:55:16.641Z,0
2017-02-08T05:56:16.620Z,0
2017-02-08T05:57:16.605Z,0
2017-02-08T05:58:16.586Z,0
2017-02-08T05:59:16.573Z,0
2017-02-08T06:00:16.549Z,0
2017-02-08T06:01:16.531Z,0
2017-02-08T06:02:16.515Z,0
2017-02-08T06:03:16.499Z,0
2017-02-08T06:04:16.482Z,0
2017-02-08T06:05:16.460Z,0
2017-02-08T06:06:16.444Z,0
2017-02-08T06:07:16.430Z,0
2017-02-08T06:08:16.413Z,0
2017-02-08T06:09:16.394Z,0
2017-02-08T06:10:15.989Z,0
2017-02-08T06:11:16.359Z,0
2017-02-08T06:12:16.340Z,0
2017-02-08T06:13:16.322Z,0
2017-02-08T06:14:15.920Z,0
2017-02-08T06:15:15.899Z,0
2017-02-08T06:16:16.270Z,0
2017-02-08T06:17:16.293Z,0
2017-02-08T06:18:15.852Z,0
2017-02-08T06:19:16.222Z,0
2017-02-08T06:20:15.820Z,0
2017-02-08T06:21:16.186Z,0
2017-02-08T06:22:16.166Z,0
2017-02-08T06:23:16.145Z,0
2017-02-08T06:24:16.133Z,0
2017-02-08T06:25:16.116Z,0
2017-02-08T06:26:15.322Z,0
2017-02-08T06:27:16.080Z,0
2017-02-08T06:28:16.065Z,0
2017-02-08T06:29:16.042Z,0
2017-02-08T06:30:16.031Z,0
2017-02-08T06:31:16.011Z,0
2017-02-08T06:32:15.219Z,0
2017-02-08T06:33:15.971Z,0
2017-02-08T06:34:15.955Z,0
2017-02-08T06:35:15.553Z,0
2017-02-08T06:36:15.921Z,0
2017-02-08T06:37:15.901Z,0
2017-02-08T06:38:15.505Z,0
2017-02-08T06:39:15.896Z,5
2017-02-08T06:40:15.108Z,5
2017-02-08T06:41:15.449Z,5
2017-02-08T06:42:15.040Z,5
2017-02-08T06:43:15.798Z,5
2017-02-08T06:44:15.393Z,5
2017-02-08T06:45:15.760Z,5
2017-02-08T06:46:15.744Z,5
2017-02-08T06:47:15.340Z,5
2017-02-08T06:48:15.323Z,5
2017-02-08T06:49:15.660Z,10
2017-02-08T06:50:15.676Z,10
2017-02-08T06:51:15.661Z,10
2017-02-08T06:52:15.644Z,10
2017-02-08T06:53:14.859Z,10
2017-02-08T06:54:15.215Z,10
2017-02-08T06:55:15.584Z,10
2017-02-08T06:56:15.570Z,10
2017-02-08T06:57:15.165Z,10
2017-02-08T06:58:15.534Z,15
2017-02-08T06:59:15.512Z,15
2017-02-08T07:00:15.110Z,15
2017-02-08T07:01:15.478Z,15
2017-02-08T07:02:14.686Z,15
2017-02-08T07:03:15.055Z,20
2017-02-08T07:04:14.650Z,20
2017-02-08T07:05:15.406Z,20
2017-02-08T07:06:15.003Z,20
2017-02-08T07:07:14.985Z,20
2017-02-08T07:08:15.362Z,20
2017-02-08T07:09:15.335Z,20
2017-02-08T07:10:14.931Z,20
2017-02-08T07:11:15.302Z,20
2017-02-08T07:12:14.898Z,25
2017-02-08T07:13:15.268Z,25
2017-02-08T07:14:15.255Z,25
2017-02-08T07:15:15.233Z,25
2017-02-08T07:16:14.441Z,25
2017-02-08T07:17:15.195Z,25
2017-02-08T07:18:14.793Z,25
2017-02-08T07:19:15.163Z,25
2017-02-08T07:20:15.145Z,25
2017-02-08T07:21:14.351Z,25
2017-02-08T07:22:15.108Z,30
2017-02-08T07:23:15.091Z,30
2017-02-08T07:24:14.685Z,30
2017-02-08T07:25:14.665Z,35
2017-02-08T07:26:14.649Z,35
2017-02-08T07:27:15.018Z,35
2017-02-08T07:28:14.616Z,35
2017-02-08T07:29:14.982Z,40
2017-02-08T07:30:14.975Z,40
2017-02-08T07:31:14.951Z,40
2017-02-08T07:32:14.545Z,40
2017-02-08T07:33:14.912Z,40
2017-02-08T07:34:14.124Z,40
2017-02-08T07:35:14.880Z,40
2017-02-08T07:36:14.471Z,45
2017-02-08T07:37:14.842Z,45
2017-02-08T07:38:14.826Z,45
2017-02-08T07:39:14.806Z,50
2017-02-08T07:40:14.791Z,50
2017-02-08T07:41:14.775Z,55
2017-02-08T07:42:14.760Z,55
2017-02-08T07:43:14.770Z,55
2017-02-08T07:44:14.337Z,55
2017-02-08T07:45:14.712Z,55
2017-02-08T07:46:14.690Z,60
2017-02-08T07:47:14.284Z,55
2017-02-08T07:48:14.272Z,55
2017-02-08T07:49:14.643Z,60
2017-02-08T07:50:14.234Z,65
2017-02-08T07:51:14.599Z,60
2017-02-08T07:52:14.584Z,60
2017-02-08T07:53:14.185Z,65
2017-02-08T07:54:14.168Z,65
2017-02-08T07:55:14.532Z,65
2017-02-08T07:56:14.512Z,65
2017-02-08T07:57:14.499Z,70
2017-02-08T07:58:14.479Z,70
2017-02-08T07:59:14.462Z,70
2017-02-08T08:00:14.447Z,70
2017-02-08T08:01:14.425Z,80
2017-02-08T08:02:14.408Z,80
2017-02-08T08:03:14.393Z,80
2017-02-08T08:04:13.216Z,80
2017-02-08T08:05:14.355Z,80
2017-02-08T08:06:14.344Z,80
2017-02-08T08:07:14.324Z,85
2017-02-08T08:08:13.538Z,80
2017-02-08T08:09:13.904Z,80
2017-02-08T08:10:14.275Z,80
2017-02-08T08:11:14.254Z,80
2017-02-08T08:12:14.237Z,80
2017-02-08T08:13:14.225Z,75
2017-02-08T08:14:13.816Z,80
2017-02-08T08:15:14.183Z,75
2017-02-08T08:16:14.172Z,80
2017-02-08T08:17:14.153Z,85
2017-02-08T08:18:14.138Z,80
2017-02-08T08:19:14.118Z,80
2017-02-08T08:20:13.716Z,80
2017-02-08T08:21:14.083Z,80
2017-02-08T08:22:14.065Z,80
2017-02-08T08:23:13.661Z,80
2017-02-08T08:24:13.642Z,85
2017-02-08T08:25:14.015Z,85
2017-02-08T08:26:13.996Z,85
2017-02-08T08:27:13.977Z,85
2017-02-08T08:28:13.575Z,90
2017-02-08T08:29:13.947Z,90
2017-02-08T08:30:13.542Z,95
2017-02-08T08:31:13.911Z,95
2017-02-08T08:32:13.896Z,95
2017-02-08T08:33:13.878Z,95
2017-02-08T08:34:13.865Z,95
2017-02-08T08:35:13.455Z,100
2017-02-08T08:36:13.826Z,100
2017-02-08T08:37:13.811Z,100
2017-02-08T08:38:13.793Z,105
2017-02-08T08:39:13.817Z,100
2017-02-08T08:40:12.985Z,100
2017-02-08T08:41:13.745Z,105
2017-02-08T08:42:13.729Z,105
2017-02-08T08:43:12.936Z,110
2017-02-08T08:44:13.303Z,105
2017-02-08T08:45:13.676Z,110
2017-02-08T08:46:13.657Z,115
2017-02-08T08:47:13.640Z,120
2017-02-08T08:48:13.628Z,125
2017-02-08T08:49:13.605Z,130
2017-02-08T08:50:13.591Z,130
2017-02-08T08:51:13.190Z,130
2017-02-08T08:52:13.555Z,135
2017-02-08T08:53:13.543Z,135
2017-02-08T08:54:13.525Z,135
2017-02-08T08:55:13.507Z,135
2017-02-08T08:56:13.490Z,130
2017-02-08T08:57:13.472Z,130
2017-02-08T08:58:12.680Z,130
2017-02-08T08:59:13.437Z,135
2017-02-08T09:00:13.034Z,135
2017-02-08T09:01:13.017Z,140
2017-02-08T09:02:13.387Z,150
2017-02-08T09:03:12.985Z,150
2017-02-08T09:04:13.359Z,150
2017-02-08T09:05:12.952Z,160
2017-02-08T09:06:12.551Z,165
2017-02-08T09:07:13.304Z,175
2017-02-08T09:08:13.288Z,180
2017-02-08T09:09:12.883Z,175
2017-02-08T09:10:12.867Z,170
2017-02-08T09:11:13.239Z,170
2017-02-08T09:12:12.829Z,175
2017-02-08T09:13:13.201Z,185
2017-02-08T09:14:12.799Z,185
2017-02-08T09:15:12.781Z,190
2017-02-08T09:16:13.153Z,190
2017-02-08T09:17:13.138Z,190
2017-02-08T09:18:12.736Z,190
2017-02-08T09:19:13.106Z,205
2017-02-08T09:20:12.702Z,220
2017-02-08T09:21:13.070Z,215
2017-02-08T09:22:12.676Z,210
2017-02-08T09:23:13.036Z,210
2017-02-08T09:24:13.022Z,205
2017-02-08T09:25:12.616Z,210
2017-02-08T09:26:12.606Z,220
2017-02-08T09:27:12.586Z,235
2017-02-08T09:28:12.576Z,245
2017-02-08T09:29:12.942Z,250
2017-02-08T09:30:12.538Z,245
2017-02-08T09:31:12.523Z,250
2017-02-08T09:32:12.931Z,250
2017-02-08T09:33:12.876Z,250
2017-02-08T09:34:12.469Z,245
2017-02-08T09:35:12.456Z,245
2017-02-08T09:36:12.827Z,260
2017-02-08T09:37:12.808Z,275
2017-02-08T09:38:12.406Z,275
2017-02-08T09:39:12.774Z,270
2017-02-08T09:40:12.766Z,280
2017-02-08T09:41:12.747Z,295
2017-02-08T09:42:12.343Z,295
2017-02-08T09:43:12.713Z,280
2017-02-08T09:44:12.314Z,270
2017-02-08T09:45:12.293Z,245
2017-02-08T09:46:12.668Z,220
2017-02-08T09:47:12.261Z,215
2017-02-08T09:48:12.632Z,205
2017-02-08T09:49:12.629Z,205
2017-02-08T09:50:12.605Z,215
2017-02-08T09:51:12.209Z,220
2017-02-08T09:52:12.185Z,225
2017-02-08T09:53:12.210Z,230
2017-02-08T09:54:11.766Z,230
2017-02-08T09:55:12.522Z,230
2017-02-08T09:56:12.120Z,220
2017-02-08T09:57:12.104Z,210
2017-02-08T09:58:12.479Z,200
2017-02-08T09:59:12.075Z,190
2017-02-08T10:00:12.449Z,190
2017-02-08T10:01:12.428Z,195
2017-02-08T10:02:12.414Z,205
2017-02-08T10:03:12.400Z,220
2017-02-08T10:04:12.384Z,240
2017-02-08T10:05:11.984Z,255
2017-02-08T10:06:11.967Z,240
2017-02-08T10:07:11.951Z,230
2017-02-08T10:08:11.935Z,215
2017-02-08T10:09:12.303Z,205
2017-02-08T10:10:11.903Z,215
2017-02-08T10:11:12.277Z,235
2017-02-08T10:12:12.258Z,245
2017-02-08T10:13:12.243Z,260
2017-02-08T10:14:12.230Z,265
2017-02-08T10:15:11.826Z,280
2017-02-08T10:16:12.196Z,280
2017-02-08T10:17:12.176Z,270
2017-02-08T10:18:11.779Z,290
2017-02-08T10:19:12.428Z,320
2017-02-08T10:20:12.169Z,330
2017-02-08T10:21:12.118Z,315
2017-02-08T10:22:12.106Z,315
2017-02-08T10:23:12.114Z,310
2017-02-08T10:24:12.076Z,310
2017-02-08T10:25:12.053Z,320
2017-02-08T10:26:12.041Z,320
2017-02-08T10:27:12.026Z,315
2017-02-08T10:28:12.013Z,315
2017-02-08T10:29:11.995Z,320
2017-02-08T10:30:11.210Z,325
2017-02-08T10:31:11.964Z,330
2017-02-08T10:32:11.949Z,325
2017-02-08T10:33:11.935Z,330
2017-02-08T10:34:11.534Z,325
2017-02-08T10:35:11.903Z,320
2017-02-08T10:36:11.505Z,315
2017-02-08T10:37:11.874Z,315
2017-02-08T10:38:11.864Z,315
2017-02-08T10:39:11.849Z,320
2017-02-08T10:40:11.834Z,325
2017-02-08T10:41:12.168Z,340
2017-02-08T10:42:11.797Z,350
2017-02-08T10:43:11.399Z,370
2017-02-08T10:44:11.768Z,390
2017-02-08T10:45:11.757Z,380
2017-02-08T10:46:11.739Z,375
2017-02-08T10:47:11.340Z,390
2017-02-08T10:48:10.941Z,405
2017-02-08T10:49:11.705Z,400
2017-02-08T10:50:10.909Z,395
2017-02-08T10:51:11.668Z,385
2017-02-08T10:52:11.272Z,380
2017-02-08T10:53:11.640Z,385
2017-02-08T10:54:11.243Z,380
2017-02-08T10:55:11.224Z,395
2017-02-08T10:56:11.597Z,400
2017-02-08T10:57:11.582Z,395
2017-02-08T10:58:11.572Z,395
2017-02-08T10:59:11.557Z,385
2017-02-08T11:00:10.771Z,390
2017-02-08T11:01:11.529Z,395
2017-02-08T11:02:11.129Z,390
2017-02-08T11:03:11.498Z,375
2017-02-08T11:04:11.484Z,370
2017-02-08T11:05:11.469Z,370
2017-02-08T11:06:11.457Z,355
2017-02-08T11:07:11.441Z,355
2017-02-08T11:08:11.045Z,355
2017-02-08T11:09:11.415Z,355
2017-02-08T11:10:11.018Z,350
2017-02-08T11:11:11.392Z,350
2017-02-08T11:12:11.376Z,345
2017-02-08T11:13:11.368Z,330
2017-02-08T11:14:10.961Z,330
2017-02-08T11:15:10.948Z,325
2017-02-08T11:16:10.967Z,325
2017-02-08T11:17:11.309Z,325
2017-02-08T11:18:10.903Z,330
2017-02-08T11:19:11.280Z,325
2017-02-08T11:20:11.270Z,320
2017-02-08T11:21:11.252Z,325
2017-02-08T11:22:10.463Z,330
2017-02-08T11:23:10.835Z,335
2017-02-08T11:24:11.213Z,335
2017-02-08T11:25:11.195Z,340
2017-02-08T11:26:11.182Z,345
2017-02-08T11:27:10.391Z,345
2017-02-08T11:28:11.152Z,345
2017-02-08T11:29:11.138Z,345
2017-02-08T11:30:10.735Z,345
2017-02-08T11:31:10.724Z,340
2017-02-08T11:32:10.711Z,335
2017-02-08T11:33:10.695Z,330
2017-02-08T11:34:11.065Z,330
2017-02-08T11:35:11.058Z,325
2017-02-08T11:36:11.041Z,320
2017-02-08T11:37:11.023Z,320
2017-02-08T11:38:10.242Z,325
2017-02-08T11:39:11.000Z,320
2017-02-08T11:40:10.212Z,320
2017-02-08T11:41:10.587Z,315
2017-02-08T11:42:10.954Z,305
2017-02-08T11:43:10.940Z,305
2017-02-08T11:44:10.928Z,300
2017-02-08T11:45:10.526Z,310
2017-02-08T11:46:10.899Z,320
2017-02-08T11:47:10.110Z,325
2017-02-08T11:48:10.094Z,325
2017-02-08T11:49:10.087Z,335
2017-02-08T11:50:10.457Z,340
2017-02-08T11:51:10.826Z,345
2017-02-08T11:52:10.429Z,345
2017-02-08T11:53:10.799Z,350
2017-02-08T11:54:10.396Z,345
2017-02-08T11:55:10.771Z,340
2017-02-08T11:56:10.369Z,340
2017-02-08T11:57:10.743Z,335
2017-02-08T11:58:10.728Z,330
2017-02-08T11:59:10.712Z,325
2017-02-08T12:00:10.312Z,320
2017-02-08T12:01:10.687Z,320
2017-02-08T12:02:10.281Z,315
2017-02-08T12:03:10.665Z,315
2017-02-08T12:04:10.253Z,315
2017-02-08T12:05:10.626Z,310
2017-02-08T12:06:10.226Z,305
2017-02-08T12:07:10.512Z,305
2017-02-08T12:08:09.811Z,305
2017-02-08T12:09:10.184Z,305
2017-02-08T12:10:10.166Z,305
2017-02-08T12:11:10.540Z,315
2017-02-08T12:12:10.528Z,310
2017-02-08T12:13:10.129Z,310
2017-02-08T12:14:10.112Z,310
2017-02-08T12:15:10.487Z,310
2017-02-08T12:16:10.083Z,315
2017-02-08T12:17:10.068Z,315
2017-02-08T12:18:09.670Z,310
2017-02-08T12:19:10.427Z,305
2017-02-08T12:20:10.027Z,305
2017-02-08T12:21:10.012Z,305
2017-02-08T12:22:10.382Z,300
2017-02-08T12:23:10.375Z,300
2017-02-08T12:24:10.355Z,300
2017-02-08T12:25:10.342Z,300
2017-02-08T12:26:10.365Z,305
2017-02-08T12:27:09.926Z,300
2017-02-08T12:28:10.300Z,300
2017-02-08T12:29:10.287Z,295
2017-02-08T12:30:09.885Z,295
2017-02-08T12:31:10.255Z,300
2017-02-08T12:32:09.855Z,290
2017-02-08T12:33:10.231Z,280
2017-02-08T12:34:10.221Z,280
2017-02-08T12:35:09.809Z,285
2017-02-08T12:36:10.191Z,290
2017-02-08T12:37:10.170Z,285
2017-02-08T12:38:10.157Z,285
2017-02-08T12:39:10.151Z,285
2017-02-08T12:40:10.130Z,285
2017-02-08T12:41:09.726Z,280
2017-02-08T12:42:10.095Z,275
2017-02-08T12:43:10.082Z,275
2017-02-08T12:44:10.069Z,280
2017-02-08T12:45:10.064Z,285
2017-02-08T12:46:10.041Z,290
2017-02-08T12:47:10.026Z,285
2017-02-08T12:48:10.013Z,280
2017-02-08T12:49:09.993Z,275
2017-02-08T12:50:09.594Z,275
2017-02-08T12:51:09.967Z,280
2017-02-08T12:52:09.568Z,285
2017-02-08T12:53:09.938Z,285
2017-02-08T12:54:09.536Z,280
2017-02-08T12:55:09.908Z,280
2017-02-08T12:56:09.506Z,270
2017-02-08T12:57:09.490Z,265
2017-02-08T12:58:09.864Z,265
2017-02-08T12:59:09.852Z,265
2017-02-08T13:00:09.449Z,265
2017-02-08T13:01:09.819Z,275
2017-02-08T13:02:09.422Z,270
2017-02-08T13:03:09.793Z,270
2017-02-08T13:04:09.785Z,270
2017-02-08T13:05:09.768Z,270
2017-02-08T13:06:09.745Z,265
2017-02-08T13:07:09.707Z,255
2017-02-08T13:08:09.717Z,250
2017-02-08T13:09:09.704Z,245
2017-02-08T13:10:09.303Z,245
2017-02-08T13:11:09.673Z,240
2017-02-08T13:12:09.660Z,230
2017-02-08T13:13:09.643Z,230
2017-02-08T13:14:09.627Z,230
2017-02-08T13:15:09.611Z,225
2017-02-08T13:16:09.601Z,215
2017-02-08T13:17:09.586Z,205
2017-02-08T13:18:09.182Z,205
2017-02-08T13:19:09.170Z,205
2017-02-08T13:20:08.767Z,210
2017-02-08T13:21:09.525Z,215
2017-02-08T13:22:09.511Z,215
2017-02-08T13:23:09.495Z,205
2017-02-08T13:24:09.091Z,205
2017-02-08T13:25:09.466Z,205
2017-02-08T13:26:09.072Z,205
2017-02-08T13:27:09.469Z,215
2017-02-08T13:28:09.038Z,215
2017-02-08T13:29:09.411Z,215
2017-02-08T13:30:09.006Z,225
2017-02-08T13:31:09.410Z,220
2017-02-08T13:32:09.386Z,225
2017-02-08T13:33:09.365Z,220
2017-02-08T13:34:09.341Z,220
2017-02-08T13:35:09.322Z,220
2017-02-08T13:36:09.329Z,215
2017-02-08T13:37:09.298Z,210
2017-02-08T13:38:08.889Z,210
2017-02-08T13:39:09.256Z,205
2017-02-08T13:40:08.856Z,205
2017-02-08T13:41:09.227Z,200
2017-02-08T13:42:09.217Z,200
2017-02-08T13:43:09.200Z,200
2017-02-08T13:44:08.793Z,200
2017-02-08T13:45:09.168Z,200
2017-02-08T13:46:09.155Z,200
2017-02-08T13:47:09.135Z,195
2017-02-08T13:48:09.130Z,190
2017-02-08T13:49:08.726Z,190
2017-02-08T13:50:08.708Z,185
2017-02-08T13:51:09.081Z,185
2017-02-08T13:52:09.361Z,185
2017-02-08T13:53:09.044Z,185
2017-02-08T13:54:08.648Z,185
2017-02-08T13:55:09.068Z,180
2017-02-08T13:56:09.005Z,180
2017-02-08T13:57:08.601Z,180
2017-02-08T13:58:08.975Z,175
2017-02-08T13:59:08.958Z,170
2017-02-08T14:00:08.554Z,170
2017-02-08T14:01:08.928Z,165
2017-02-08T14:02:08.909Z,160
2017-02-08T14:03:08.893Z,155
2017-02-08T14:04:08.881Z,150
2017-02-08T14:05:08.864Z,155
2017-02-08T14:06:08.851Z,160
2017-02-08T14:07:08.833Z,160
2017-02-08T14:08:08.431Z,155
2017-02-08T14:09:08.417Z,150
2017-02-08T14:10:08.789Z,150
2017-02-08T14:11:08.774Z,145
2017-02-08T14:12:08.761Z,135
2017-02-08T14:13:08.355Z,130
2017-02-08T14:14:08.725Z,120
2017-02-08T14:15:08.712Z,110
2017-02-08T14:16:08.695Z,105
2017-02-08T14:17:08.679Z,105